createdAt,value
2018-11-02T00:00:00.383Z,58.42
2018-11-02T00:00:31.516Z,55.85
2018-11-02T00:01:02.670Z,56.15
2018-11-02T00:01:33.918Z,59.03
2018-11-02T00:02:05.042Z,58.42
2018-11-02T00:02:36.193Z,58.10
2018-11-02T00:03:07.340Z,60.33
2018-11-02T00:03:38.484Z,57.62
2018-11-02T00:04:09.609Z,58.33
2018-11-02T00:04:40.779Z,58.52
2018-11-02T00:05:11.895Z,59.10
2018-11-02T00:05:43.015Z,58.17
2018-11-02T00:06:14.162Z,58.38
2018-11-02T00:06:45.334Z,57.55
2018-11-02T00:07:16.451Z,59.27
2018-11-02T00:07:47.612Z,59.67
2018-11-02T00:08:18.726Z,55.30
2018-11-02T00:08:49.841Z,59.40
2018-11-02T00:09:20.985Z,57.13
2018-11-02T00:09:52.170Z,60.25
2018-11-02T00:10:23.347Z,59.77
2018-11-02T00:10:54.494Z,61.80
2018-11-02T00:11:25.624Z,60.92
2018-11-02T00:11:56.755Z,59.25
2018-11-02T00:12:27.931Z,58.45
2018-11-02T00:12:59.055Z,54.55
2018-11-02T00:13:30.195Z,56.50
2018-11-02T00:14:01.332Z,61.28
2018-11-02T00:14:32.481Z,62.13
2018-11-02T00:15:03.627Z,59.25
2018-11-02T00:15:34.823Z,59.15
2018-11-02T00:16:05.970Z,62.08
2018-11-02T00:16:37.127Z,61.70
2018-11-02T00:17:08.280Z,62.20
2018-11-02T00:17:39.390Z,58.20
2018-11-02T00:18:10.563Z,59.25
2018-11-02T00:18:41.704Z,61.15
2018-11-02T00:19:12.838Z,56.77
2018-11-02T00:19:43.973Z,61.08
2018-11-02T00:20:15.118Z,63.30
2018-11-02T00:20:46.281Z,62.00
2018-11-02T00:21:17.441Z,57.75
2018-11-02T00:21:48.574Z,53.75
2018-11-02T00:22:19.677Z,58.28
2018-11-02T00:22:50.826Z,58.75
2018-11-02T00:23:21.945Z,58.13
2018-11-02T00:23:53.087Z,53.95
2018-11-02T00:24:24.203Z,55.45
2018-11-02T00:24:55.316Z,54.33
2018-11-02T00:25:26.438Z,52.45
2018-11-02T00:25:57.596Z,54.23
2018-11-02T00:26:28.760Z,56.13
2018-11-02T00:26:59.912Z,48.87
2018-11-02T00:27:31.054Z,50.28
2018-11-02T00:28:02.180Z,51.70
2018-11-02T00:28:33.303Z,54.90
2018-11-02T00:29:04.425Z,56.35
2018-11-02T00:29:36.565Z,56.02
2018-11-02T00:30:08.471Z,57.17
2018-11-02T00:30:39.588Z,61.55
2018-11-02T00:31:47.491Z,58.78
2018-11-02T00:32:18.550Z,54.25
2018-11-02T00:32:49.673Z,58.68
2018-11-02T00:33:20.798Z,55.90
2018-11-02T00:33:51.958Z,55.58
2018-11-02T00:34:23.086Z,57.43
2018-11-02T00:34:54.217Z,57.90
2018-11-02T00:35:25.328Z,57.05
2018-11-02T00:35:56.490Z,58.80
2018-11-02T00:36:27.619Z,53.52
2018-11-02T00:36:58.785Z,54.25
2018-11-02T00:37:29.894Z,55.23
2018-11-02T00:38:00.997Z,57.27
2018-11-02T00:38:32.109Z,59.98
2018-11-02T00:39:03.241Z,58.70
2018-11-02T00:39:34.383Z,60.12
2018-11-02T00:40:05.521Z,61.35
2018-11-02T00:40:36.644Z,60.25
2018-11-02T00:41:07.759Z,61.40
2018-11-02T00:41:38.916Z,60.95
2018-11-02T00:42:10.070Z,61.68
2018-11-02T00:42:41.253Z,59.50
2018-11-02T00:43:12.364Z,54.63
2018-11-02T00:43:43.481Z,57.62
2018-11-02T00:44:14.664Z,55.43
2018-11-02T00:44:45.785Z,61.50
2018-11-02T00:45:16.910Z,61.15
2018-11-02T00:45:48.027Z,62.90
2018-11-02T00:46:19.166Z,50.60
2018-11-02T00:46:50.290Z,53.68
2018-11-02T00:47:21.398Z,56.80
2018-11-02T00:47:52.589Z,54.93
2018-11-02T00:48:23.743Z,55.88
2018-11-02T00:48:54.891Z,59.70
2018-11-02T00:49:26.036Z,60.17
2018-11-02T00:49:57.238Z,60.45
2018-11-02T00:50:28.374Z,61.75
2018-11-02T00:50:59.531Z,61.37
2018-11-02T00:51:30.700Z,58.15
2018-11-02T00:52:01.825Z,53.92
2018-11-02T00:52:32.941Z,55.73
2018-11-02T00:53:04.279Z,57.70
2018-11-02T00:53:35.410Z,61.02
2018-11-02T00:54:06.536Z,57.55
2018-11-02T00:54:37.695Z,53.00
2018-11-02T00:55:08.843Z,55.48
2018-11-02T00:55:40.020Z,56.35
2018-11-02T00:56:11.139Z,54.67
2018-11-02T00:56:42.267Z,58.35
2018-11-02T00:57:13.386Z,56.80
2018-11-02T00:57:44.518Z,57.60
2018-11-02T00:58:15.696Z,57.62
2018-11-02T00:58:46.837Z,58.50
2018-11-02T00:59:18.002Z,58.65
2018-11-02T00:59:49.101Z,55.73
2018-11-02T01:00:20.216Z,54.25
2018-11-02T01:00:51.371Z,57.90
2018-11-02T01:01:22.516Z,53.95
2018-11-02T01:01:53.634Z,55.70
2018-11-02T01:02:24.793Z,56.18
2018-11-02T01:02:55.950Z,56.70
2018-11-02T01:03:27.092Z,54.55
2018-11-02T01:03:58.211Z,54.40
2018-11-02T01:04:29.322Z,56.83
2018-11-02T01:05:00.454Z,55.83
2018-11-02T01:05:31.589Z,57.58
2018-11-02T01:06:02.741Z,56.33
2018-11-02T01:06:33.870Z,58.13
2018-11-02T01:07:05.056Z,58.10
2018-11-02T01:07:36.214Z,54.42
2018-11-02T01:08:07.371Z,55.70
2018-11-02T01:08:38.510Z,51.55
2018-11-02T01:09:09.664Z,51.53
2018-11-02T01:09:40.778Z,51.15
2018-11-02T01:10:11.912Z,53.00
2018-11-02T01:10:43.018Z,53.58
2018-11-02T01:11:14.176Z,51.40
2018-11-02T01:11:45.320Z,52.95
2018-11-02T01:12:16.461Z,49.83
2018-11-02T01:12:47.614Z,54.48
2018-11-02T01:13:18.786Z,50.75
2018-11-02T01:13:49.912Z,51.80
2018-11-02T01:14:21.029Z,50.80
2018-11-02T01:14:52.153Z,49.67
2018-11-02T01:15:23.314Z,54.05
2018-11-02T01:15:54.432Z,49.05
2018-11-02T01:16:25.653Z,48.30
2018-11-02T01:16:56.805Z,49.73
2018-11-02T01:17:27.950Z,48.52
2018-11-02T01:17:59.091Z,45.43
2018-11-02T01:18:30.223Z,48.75
2018-11-02T01:19:01.362Z,51.45
2018-11-02T01:19:32.520Z,53.63
2018-11-02T01:20:03.701Z,52.25
2018-11-02T01:20:34.868Z,51.77
2018-11-02T01:21:06.012Z,53.68
2018-11-02T01:21:37.674Z,50.65
2018-11-02T01:22:08.834Z,52.62
2018-11-02T01:22:39.946Z,53.33
2018-11-02T01:23:11.134Z,55.03
2018-11-02T01:23:42.252Z,56.00
2018-11-02T01:24:13.409Z,54.70
2018-11-02T01:24:44.552Z,55.85
2018-11-02T01:25:15.705Z,58.28
2018-11-02T01:25:47.131Z,55.60
2018-11-02T01:26:18.269Z,54.20
2018-11-02T01:26:49.414Z,54.00
2018-11-02T01:27:20.535Z,55.92
2018-11-02T01:27:51.676Z,55.92
2018-11-02T01:28:22.970Z,58.83
2018-11-02T01:28:54.131Z,58.05
2018-11-02T01:29:25.289Z,59.90
2018-11-02T01:29:56.426Z,56.58
2018-11-02T01:30:27.548Z,59.25
2018-11-02T01:30:58.688Z,60.50
2018-11-02T01:31:29.798Z,59.98
2018-11-02T01:32:00.968Z,58.02
2018-11-02T01:32:32.098Z,57.58
2018-11-02T01:33:03.242Z,55.90
2018-11-02T01:33:34.394Z,59.67
2018-11-02T01:34:05.529Z,59.58
2018-11-02T01:34:36.653Z,60.52
2018-11-02T01:35:07.758Z,59.00
2018-11-02T01:35:38.887Z,60.23
2018-11-02T01:36:10.005Z,58.20
2018-11-02T01:36:41.180Z,60.45
2018-11-02T01:37:12.353Z,60.67
2018-11-02T01:37:43.506Z,59.38
2018-11-02T01:38:14.634Z,51.13
2018-11-02T01:38:45.756Z,53.83
2018-11-02T01:39:16.884Z,55.70
2018-11-02T01:39:48.119Z,56.40
2018-11-02T01:40:19.293Z,56.77
2018-11-02T01:40:50.413Z,57.38
2018-11-02T01:41:21.542Z,54.88
2018-11-02T01:41:52.668Z,56.85
2018-11-02T01:42:24.739Z,54.93
2018-11-02T01:42:56.059Z,51.88
2018-11-02T01:43:27.407Z,56.80
2018-11-02T01:43:58.579Z,57.30
2018-11-02T01:44:29.763Z,58.50
2018-11-02T01:45:00.866Z,57.67
2018-11-02T01:45:32.048Z,55.83
2018-11-02T01:46:03.202Z,55.80
2018-11-02T01:46:34.343Z,58.48
2018-11-02T01:47:05.492Z,58.02
2018-11-02T01:47:36.597Z,55.40
2018-11-02T01:48:07.778Z,55.92
2018-11-02T01:48:38.975Z,59.35
2018-11-02T01:49:10.164Z,58.35
2018-11-02T01:49:41.289Z,60.75
2018-11-02T01:50:12.449Z,59.35
2018-11-02T01:50:43.574Z,58.52
2018-11-02T01:51:14.739Z,60.90
2018-11-02T01:51:45.947Z,62.45
2018-11-02T01:52:17.273Z,59.18
2018-11-02T01:52:48.428Z,61.68
2018-11-02T01:53:19.563Z,56.08
2018-11-02T01:53:50.747Z,58.60
2018-11-02T01:54:21.898Z,52.95
2018-11-02T01:54:54.030Z,55.90
2018-11-02T01:55:25.184Z,56.13
2018-11-02T01:55:56.405Z,53.52
2018-11-02T01:56:27.517Z,54.10
2018-11-02T01:56:58.659Z,51.90
2018-11-02T01:57:29.832Z,53.50
2018-11-02T01:58:01.016Z,53.20
2018-11-02T01:58:32.215Z,51.90
2018-11-02T01:59:03.419Z,52.90
2018-11-02T01:59:34.579Z,53.15
2018-11-02T02:00:05.702Z,54.20
2018-11-02T02:00:36.943Z,53.50
2018-11-02T02:01:08.067Z,49.58
2018-11-02T02:01:39.206Z,51.25
2018-11-02T02:02:10.327Z,50.35
2018-11-02T02:02:41.492Z,50.83
2018-11-02T02:03:13.154Z,51.18
2018-11-02T02:03:44.294Z,53.78
2018-11-02T02:04:19.891Z,52.53
2018-11-02T02:04:52.019Z,52.78
2018-11-02T02:05:24.692Z,52.30
2018-11-02T02:05:55.862Z,56.75
2018-11-02T02:06:26.987Z,52.17
2018-11-02T02:06:58.122Z,52.25
2018-11-02T02:07:29.259Z,55.08
2018-11-02T02:08:00.420Z,53.38
2018-11-02T02:08:31.568Z,52.40
2018-11-02T02:09:02.727Z,51.75
2018-11-02T02:09:33.922Z,52.70
2018-11-02T02:10:05.068Z,49.40
2018-11-02T02:10:36.233Z,51.20
2018-11-02T02:11:08.528Z,53.55
2018-11-02T02:11:39.732Z,56.10
2018-11-02T02:12:10.849Z,56.92
2018-11-02T02:12:41.958Z,57.78
2018-11-02T02:13:13.113Z,58.80
2018-11-02T02:13:44.267Z,61.50
2018-11-02T02:14:15.479Z,52.33
2018-11-02T02:14:46.645Z,55.17
2018-11-02T02:15:17.764Z,58.45
2018-11-02T02:15:49.473Z,57.53
2018-11-02T02:16:20.638Z,57.67
2018-11-02T02:16:51.818Z,55.70
2018-11-02T02:17:22.966Z,52.08
2018-11-02T02:17:54.067Z,53.83
2018-11-02T02:18:25.232Z,52.40
2018-11-02T02:18:56.648Z,52.23
2018-11-02T02:19:27.817Z,55.12
2018-11-02T02:19:58.938Z,54.77
2018-11-02T02:20:30.074Z,56.42
2018-11-02T02:21:01.190Z,55.28
2018-11-02T02:21:32.323Z,56.40
2018-11-02T02:22:03.478Z,57.08
2018-11-02T02:22:34.646Z,58.90
2018-11-02T02:23:05.759Z,59.23
2018-11-02T02:23:36.906Z,56.18
2018-11-02T02:24:08.014Z,56.60
2018-11-02T02:24:39.202Z,52.67
2018-11-02T02:25:10.338Z,55.12
2018-11-02T02:25:41.463Z,59.63
2018-11-02T02:26:12.595Z,58.98
2018-11-02T02:26:43.782Z,61.28
2018-11-02T02:27:15.056Z,58.60
2018-11-02T02:27:46.184Z,60.65
2018-11-02T02:28:17.307Z,57.08
2018-11-02T02:28:48.425Z,60.40
2018-11-02T02:29:19.599Z,61.95
2018-11-02T02:29:50.781Z,62.60
2018-11-02T02:30:21.917Z,61.95
2018-11-02T02:30:53.040Z,61.02
2018-11-02T02:31:24.841Z,55.98
2018-11-02T02:31:56.612Z,54.98
2018-11-02T02:32:27.758Z,53.52
2018-11-02T02:32:58.871Z,55.38
2018-11-02T02:33:29.988Z,54.35
2018-11-02T02:34:01.126Z,53.90
2018-11-02T02:34:32.359Z,58.38
2018-11-02T02:35:03.477Z,57.78
2018-11-02T02:35:34.651Z,57.50
2018-11-02T02:36:05.813Z,54.25
2018-11-02T02:36:36.988Z,55.33
2018-11-02T02:37:08.117Z,56.75
2018-11-02T02:37:39.231Z,58.85
2018-11-02T02:38:10.357Z,59.20
2018-11-02T02:38:41.469Z,58.58
2018-11-02T02:39:12.593Z,58.20
2018-11-02T02:39:43.726Z,58.25
2018-11-02T02:40:14.834Z,59.67
2018-11-02T02:40:45.948Z,60.70
2018-11-02T02:41:17.113Z,59.13
2018-11-02T02:41:48.238Z,60.10
2018-11-02T02:42:19.380Z,61.50
2018-11-02T02:42:50.527Z,57.10
2018-11-02T02:43:21.836Z,61.95
2018-11-02T02:43:53.036Z,58.78
2018-11-02T02:44:24.165Z,55.65
2018-11-02T02:44:55.285Z,57.05
2018-11-02T02:45:26.379Z,57.67
2018-11-02T02:45:57.514Z,60.90
2018-11-02T02:46:28.650Z,57.30
2018-11-02T02:46:59.794Z,58.05
2018-11-02T02:47:30.956Z,56.10
2018-11-02T02:48:02.117Z,59.90
2018-11-02T02:48:33.795Z,58.45
2018-11-02T02:49:04.970Z,58.40
2018-11-02T02:49:36.128Z,54.35
2018-11-02T02:50:07.290Z,57.78
2018-11-02T02:50:38.421Z,56.55
2018-11-02T02:51:11.963Z,57.65
2018-11-02T02:51:43.102Z,56.05
2018-11-02T02:52:14.312Z,53.13
2018-11-02T02:52:46.268Z,58.48
2018-11-02T02:53:17.435Z,56.05
2018-11-02T02:53:48.538Z,59.23
2018-11-02T02:54:19.677Z,55.20
2018-11-02T02:54:50.813Z,56.90
2018-11-02T02:55:22.077Z,54.65
2018-11-02T02:55:53.207Z,54.88
2018-11-02T02:56:24.350Z,53.13
2018-11-02T02:56:55.478Z,55.45
2018-11-02T02:57:26.710Z,51.70
2018-11-02T02:57:58.642Z,54.45
2018-11-02T02:58:29.810Z,52.55
2018-11-02T02:59:00.950Z,56.25
2018-11-02T02:59:32.162Z,54.50
2018-11-02T03:00:03.294Z,57.58
2018-11-02T03:00:34.440Z,56.05
2018-11-02T03:01:05.573Z,56.33
2018-11-02T03:01:36.684Z,52.43
2018-11-02T03:02:07.844Z,55.08
2018-11-02T03:02:39.049Z,56.37
2018-11-02T03:03:10.188Z,57.27
2018-11-02T03:03:41.379Z,59.40
2018-11-02T03:04:12.505Z,54.20
2018-11-02T03:04:43.633Z,54.35
2018-11-02T03:05:14.866Z,56.98
2018-11-02T03:05:45.978Z,55.80
2018-11-02T03:06:17.085Z,55.75
2018-11-02T03:06:48.208Z,57.05
2018-11-02T03:07:19.389Z,57.25
2018-11-02T03:07:50.549Z,56.20
2018-11-02T03:08:21.676Z,57.85
2018-11-02T03:08:52.869Z,57.58
2018-11-02T03:09:24.123Z,56.05
2018-11-02T03:09:55.291Z,58.23
2018-11-02T03:10:26.529Z,59.73
2018-11-02T03:10:57.805Z,52.40
2018-11-02T03:11:28.760Z,54.65
2018-11-02T03:11:59.903Z,54.55
2018-11-02T03:12:31.025Z,55.45
2018-11-02T03:13:02.176Z,57.13
2018-11-02T03:13:33.290Z,57.78
2018-11-02T03:14:04.489Z,62.60
2018-11-02T03:14:35.620Z,55.23
2018-11-02T03:15:06.782Z,52.95
2018-11-02T03:15:37.946Z,54.53
2018-11-02T03:16:09.072Z,56.80
2018-11-02T03:16:40.207Z,55.95
2018-11-02T03:17:11.328Z,58.33
2018-11-02T03:17:42.521Z,55.28
2018-11-02T03:18:13.683Z,54.55
2018-11-02T03:18:44.888Z,55.03
2018-11-02T03:19:15.962Z,54.73
2018-11-02T03:19:47.132Z,54.88
2018-11-02T03:20:18.245Z,53.28
2018-11-02T03:20:49.399Z,50.55
2018-11-02T03:21:20.509Z,54.20
2018-11-02T03:21:51.614Z,52.67
2018-11-02T03:22:22.790Z,54.10
2018-11-02T03:22:53.874Z,54.77
2018-11-02T03:23:25.023Z,55.70
2018-11-02T03:23:56.189Z,57.20
2018-11-02T03:24:27.366Z,53.35
2018-11-02T03:24:58.516Z,53.58
2018-11-02T03:25:29.686Z,53.90
2018-11-02T03:26:00.845Z,57.20
2018-11-02T03:26:31.956Z,55.23
2018-11-02T03:27:03.145Z,54.93
2018-11-02T03:27:34.288Z,58.35
2018-11-02T03:28:05.457Z,57.90
2018-11-02T03:28:36.610Z,60.48
2018-11-02T03:29:07.726Z,57.60
2018-11-02T03:29:38.839Z,54.50
2018-11-02T03:30:10.042Z,51.95
2018-11-02T03:30:41.199Z,57.50
2018-11-02T03:31:12.365Z,57.80
2018-11-02T03:31:43.492Z,52.62
2018-11-02T03:32:14.619Z,55.25
2018-11-02T03:32:45.780Z,55.45
2018-11-02T03:33:16.932Z,53.75
2018-11-02T03:33:48.098Z,55.15
2018-11-02T03:34:19.247Z,57.20
2018-11-02T03:34:50.383Z,56.50
2018-11-02T03:35:21.532Z,55.00
2018-11-02T03:35:52.656Z,50.23
2018-11-02T03:36:23.815Z,54.48
2018-11-02T03:36:54.935Z,54.25
2018-11-02T03:37:26.047Z,51.98
2018-11-02T03:37:57.228Z,54.53
2018-11-02T03:38:28.385Z,56.08
2018-11-02T03:38:59.491Z,56.98
2018-11-02T03:39:30.616Z,55.65
2018-11-02T03:40:01.810Z,55.88
2018-11-02T03:40:32.891Z,56.25
2018-11-02T03:41:04.041Z,60.48
2018-11-02T03:41:35.179Z,58.83
2018-11-02T03:42:06.321Z,58.33
2018-11-02T03:42:37.447Z,55.63
2018-11-02T03:43:08.954Z,53.50
2018-11-02T03:43:40.093Z,54.23
2018-11-02T03:44:11.191Z,52.10
2018-11-02T03:44:42.308Z,54.15
2018-11-02T03:45:13.419Z,55.40
2018-11-02T03:45:44.546Z,53.80
2018-11-02T03:46:15.669Z,52.98
2018-11-02T03:46:46.800Z,56.02
2018-11-02T03:47:17.937Z,57.15
2018-11-02T03:47:49.066Z,57.03
2018-11-02T03:48:20.270Z,59.18
2018-11-02T03:48:51.441Z,59.95
2018-11-02T03:49:22.574Z,59.27
2018-11-02T03:49:53.729Z,55.80
2018-11-02T03:50:25.292Z,56.25
2018-11-02T03:50:56.741Z,59.42
2018-11-02T03:51:27.866Z,56.90
2018-11-02T03:51:58.992Z,56.48
2018-11-02T03:52:30.128Z,54.88
2018-11-02T03:53:01.247Z,54.50
2018-11-02T03:53:32.456Z,56.92
2018-11-02T03:54:03.630Z,53.35
2018-11-02T03:54:34.803Z,56.58
2018-11-02T03:55:05.939Z,53.45
2018-11-02T03:55:37.053Z,56.08
2018-11-02T03:56:08.297Z,57.10
2018-11-02T03:56:39.495Z,54.40
2018-11-02T03:57:10.592Z,56.33
2018-11-02T03:57:41.729Z,57.25
2018-11-02T03:58:12.843Z,51.75
2018-11-02T03:58:44.026Z,54.88
2018-11-02T03:59:15.140Z,51.60
2018-11-02T03:59:46.276Z,55.38
2018-11-02T04:00:17.424Z,54.18
2018-11-02T04:00:48.575Z,52.17
2018-11-02T04:01:19.695Z,54.80
2018-11-02T04:01:50.823Z,57.80
2018-11-02T04:02:21.994Z,57.05
2018-11-02T04:02:53.138Z,57.93
2018-11-02T04:03:24.255Z,58.63
2018-11-02T04:03:55.409Z,53.48
2018-11-02T04:04:26.584Z,53.60
2018-11-02T04:04:57.724Z,50.17
2018-11-02T04:05:28.913Z,52.75
2018-11-02T04:06:00.061Z,49.67
2018-11-02T04:06:32.273Z,52.03
2018-11-02T04:07:03.489Z,52.35
2018-11-02T04:07:34.646Z,53.60
2018-11-02T04:08:05.812Z,54.65
2018-11-02T04:08:36.933Z,56.30
2018-11-02T04:09:08.096Z,57.75
2018-11-02T04:09:39.292Z,56.23
2018-11-02T04:10:10.439Z,58.48
2018-11-02T04:10:41.576Z,57.25
2018-11-02T04:11:12.706Z,58.48
2018-11-02T04:11:43.870Z,57.38
2018-11-02T04:12:14.986Z,58.02
2018-11-02T04:12:46.173Z,58.40
2018-11-02T04:13:17.348Z,58.08
2018-11-02T04:13:48.502Z,57.75
2018-11-02T04:14:19.681Z,55.75
2018-11-02T04:14:50.813Z,55.52
2018-11-02T04:15:22.000Z,52.90
2018-11-02T04:15:53.158Z,57.40
2018-11-02T04:16:24.306Z,53.35
2018-11-02T04:16:55.453Z,55.75
2018-11-02T04:17:26.575Z,53.85
2018-11-02T04:17:57.687Z,53.92
2018-11-02T04:18:28.837Z,52.67
2018-11-02T04:18:59.942Z,56.05
2018-11-02T04:19:31.099Z,58.58
2018-11-02T04:20:02.245Z,54.08
2018-11-02T04:20:33.415Z,53.13
2018-11-02T04:21:05.335Z,56.30
2018-11-02T04:21:37.320Z,54.75
2018-11-02T04:22:08.558Z,52.73
2018-11-02T04:22:39.731Z,55.60
2018-11-02T04:23:10.935Z,55.75
2018-11-02T04:23:42.084Z,56.85
2018-11-02T04:24:13.220Z,57.13
2018-11-02T04:24:44.325Z,57.38
2018-11-02T04:25:15.432Z,56.85
2018-11-02T04:25:46.596Z,57.40
2018-11-02T04:26:17.714Z,60.08
2018-11-02T04:26:48.835Z,56.75
2018-11-02T04:27:19.947Z,58.08
2018-11-02T04:27:51.077Z,50.25
2018-11-02T04:28:22.253Z,54.80
2018-11-02T04:28:53.362Z,50.50
2018-11-02T04:29:24.498Z,50.20
2018-11-02T04:29:56.706Z,52.98
2018-11-02T04:30:27.864Z,49.70
2018-11-02T04:30:59.128Z,54.27
2018-11-02T04:31:30.158Z,54.83
2018-11-02T04:32:01.308Z,54.08
2018-11-02T04:32:32.440Z,49.50
2018-11-02T04:33:03.559Z,49.13
2018-11-02T04:33:34.751Z,50.88
2018-11-02T04:34:05.893Z,53.35
2018-11-02T04:34:37.050Z,53.08
2018-11-02T04:35:08.172Z,48.42
2018-11-02T04:35:39.342Z,48.52
2018-11-02T04:36:10.471Z,50.90
2018-11-02T04:36:41.617Z,52.03
2018-11-02T04:37:12.788Z,51.35
2018-11-02T04:37:43.893Z,51.05
2018-11-02T04:38:15.012Z,51.75
2018-11-02T04:38:46.143Z,49.45
2018-11-02T04:39:17.299Z,51.68
2018-11-02T04:39:48.528Z,55.20
2018-11-02T04:40:19.652Z,54.55
2018-11-02T04:40:50.762Z,53.98
2018-11-02T04:41:21.940Z,53.38
2018-11-02T04:41:53.111Z,53.78
2018-11-02T04:42:24.256Z,51.98
2018-11-02T04:42:55.412Z,50.45
2018-11-02T04:43:26.514Z,51.88
2018-11-02T04:43:57.653Z,54.30
2018-11-02T04:44:28.794Z,53.08
2018-11-02T04:44:59.925Z,56.20
2018-11-02T04:45:31.125Z,54.20
2018-11-02T04:46:02.265Z,55.95
2018-11-02T04:46:33.372Z,49.75
2018-11-02T04:47:04.501Z,51.75
2018-11-02T04:47:35.662Z,49.75
2018-11-02T04:48:06.783Z,48.28
2018-11-02T04:48:37.890Z,49.27
2018-11-02T04:49:09.051Z,52.43
2018-11-02T04:49:42.097Z,47.45
2018-11-02T04:50:13.228Z,52.33
2018-11-02T04:50:44.377Z,53.87
2018-11-02T04:51:15.592Z,52.60
2018-11-02T04:51:46.688Z,55.40
2018-11-02T04:52:17.822Z,55.15
2018-11-02T04:52:48.972Z,54.53
2018-11-02T04:53:21.121Z,50.78
2018-11-02T04:53:52.280Z,49.03
2018-11-02T04:54:23.440Z,51.80
2018-11-02T04:54:54.570Z,48.73
2018-11-02T04:55:28.648Z,50.20
2018-11-02T04:55:59.814Z,47.25
2018-11-02T04:56:30.960Z,47.93
2018-11-02T04:57:02.098Z,49.75
2018-11-02T04:57:33.268Z,47.60
2018-11-02T04:58:04.442Z,49.50
2018-11-02T04:58:36.564Z,45.63
2018-11-02T04:59:07.781Z,50.90
2018-11-02T04:59:38.893Z,52.08
2018-11-02T05:00:10.012Z,53.98
2018-11-02T05:00:41.180Z,55.05
2018-11-02T05:01:12.338Z,55.70
2018-11-02T05:01:43.498Z,57.17
2018-11-02T05:02:14.625Z,55.80
2018-11-02T05:02:45.819Z,53.87
2018-11-02T05:03:17.005Z,55.10
2018-11-02T05:03:48.670Z,56.53
2018-11-02T05:04:19.815Z,56.45
2018-11-02T05:04:50.934Z,55.92
2018-11-02T05:05:22.112Z,53.23
2018-11-02T05:05:53.260Z,54.27
2018-11-02T05:06:24.456Z,56.77
2018-11-02T05:06:55.713Z,52.98
2018-11-02T05:07:26.885Z,53.92
2018-11-02T05:07:58.113Z,52.25
2018-11-02T05:08:29.305Z,54.23
2018-11-02T05:09:00.432Z,53.15
2018-11-02T05:09:31.553Z,51.60
2018-11-02T05:10:02.835Z,52.08
2018-11-02T05:10:33.828Z,52.62
2018-11-02T05:11:04.960Z,51.68
2018-11-02T05:11:36.219Z,52.62
2018-11-02T05:12:07.241Z,55.60
2018-11-02T05:12:38.362Z,51.75
2018-11-02T05:13:09.490Z,52.30
2018-11-02T05:13:40.621Z,53.58
2018-11-02T05:14:11.795Z,56.40
2018-11-02T05:14:42.933Z,57.17
2018-11-02T05:15:14.068Z,56.45
2018-11-02T05:15:45.220Z,56.05
2018-11-02T05:16:16.375Z,56.92
2018-11-02T05:16:47.504Z,58.52
2018-11-02T05:17:18.639Z,56.90
2018-11-02T05:17:49.764Z,56.80
2018-11-02T05:18:20.926Z,50.73
2018-11-02T05:18:52.073Z,45.52
2018-11-02T05:19:23.276Z,48.73
2018-11-02T05:19:54.446Z,50.08
2018-11-02T05:20:25.582Z,51.42
2018-11-02T05:20:56.780Z,52.33
2018-11-02T05:21:27.966Z,55.28
2018-11-02T05:21:59.083Z,52.50
2018-11-02T05:22:30.622Z,52.00
2018-11-02T05:23:01.775Z,49.20
2018-11-02T05:23:32.936Z,52.03
2018-11-02T05:24:04.056Z,53.73
2018-11-02T05:24:35.236Z,54.25
2018-11-02T05:25:06.386Z,51.75
2018-11-02T05:25:37.530Z,50.63
2018-11-02T05:26:09.463Z,49.13
2018-11-02T05:26:40.624Z,51.50
2018-11-02T05:27:11.765Z,51.25
2018-11-02T05:27:42.962Z,49.67
2018-11-02T05:28:14.118Z,48.63
2018-11-02T05:28:45.288Z,48.65
2018-11-02T05:29:16.417Z,49.83
2018-11-02T05:29:47.548Z,49.45
2018-11-02T05:30:19.617Z,46.50
2018-11-02T05:30:51.606Z,50.15
2018-11-02T05:31:22.876Z,48.90
2018-11-02T05:31:54.042Z,49.85
2018-11-02T05:32:25.224Z,53.10
2018-11-02T05:32:56.371Z,51.92
2018-11-02T05:33:27.536Z,52.13
2018-11-02T05:33:58.804Z,52.23
2018-11-02T05:34:29.958Z,50.67
2018-11-02T05:35:01.074Z,49.65
2018-11-02T05:35:32.221Z,48.78
2018-11-02T05:36:03.376Z,50.55
2018-11-02T05:36:35.579Z,47.85
2018-11-02T05:37:06.848Z,47.58
2018-11-02T05:37:37.996Z,49.42
2018-11-02T05:38:09.139Z,50.20
2018-11-02T05:38:40.297Z,51.18
2018-11-02T05:39:11.530Z,48.85
2018-11-02T05:39:42.759Z,49.77
2018-11-02T05:40:13.883Z,45.17
2018-11-02T05:40:45.046Z,48.40
2018-11-02T05:41:16.171Z,46.70
2018-11-02T05:41:47.319Z,48.92
2018-11-02T05:42:18.443Z,48.63
2018-11-02T05:42:49.570Z,45.55
2018-11-02T05:43:20.715Z,44.63
2018-11-02T05:43:51.893Z,43.80
2018-11-02T05:44:23.080Z,46.85
2018-11-02T05:44:54.236Z,48.45
2018-11-02T05:45:25.360Z,46.55
2018-11-02T05:45:56.504Z,47.03
2018-11-02T05:46:27.633Z,46.33
2018-11-02T05:46:58.818Z,48.70
2018-11-02T05:47:30.063Z,48.70
2018-11-02T05:48:01.162Z,49.63
2018-11-02T05:48:32.306Z,46.98
2018-11-02T05:49:03.500Z,44.98
2018-11-02T05:49:34.670Z,46.13
2018-11-02T05:50:05.787Z,44.83
2018-11-02T05:50:36.923Z,44.85
2018-11-02T05:51:08.069Z,44.18
2018-11-02T05:51:39.226Z,44.85
2018-11-02T05:52:10.391Z,48.13
2018-11-02T05:52:41.505Z,48.00
2018-11-02T05:53:12.654Z,47.53
2018-11-02T05:53:44.867Z,49.18
2018-11-02T05:54:16.717Z,44.55
2018-11-02T05:54:47.880Z,46.83
2018-11-02T05:55:19.035Z,48.63
2018-11-02T05:55:50.196Z,48.33
2018-11-02T05:56:21.497Z,47.30
2018-11-02T05:56:52.794Z,48.55
2018-11-02T06:00:02.789Z,43.78
2018-11-02T06:00:33.946Z,44.77
2018-11-02T06:01:06.270Z,45.12
2018-11-02T06:01:37.484Z,43.63
2018-11-02T06:02:08.592Z,45.03
2018-11-02T06:02:39.757Z,48.92
2018-11-02T06:03:10.871Z,50.20
2018-11-02T06:03:41.999Z,50.45
2018-11-02T06:04:13.139Z,49.53
2018-11-02T06:04:44.267Z,51.48
2018-11-02T06:05:16.047Z,48.20
2018-11-02T06:05:47.237Z,49.58
2018-11-02T06:06:19.403Z,46.75
2018-11-02T06:06:50.562Z,49.63
2018-11-02T06:07:21.693Z,48.28
2018-11-02T06:07:52.855Z,48.38
2018-11-02T06:08:23.990Z,48.55
2018-11-02T06:08:55.116Z,49.85
2018-11-02T06:09:26.233Z,47.60
2018-11-02T06:09:57.355Z,49.15
2018-11-02T06:10:28.525Z,48.92
2018-11-02T06:10:59.676Z,48.05
2018-11-02T06:11:30.804Z,50.48
2018-11-02T06:12:01.907Z,49.15
2018-11-02T06:12:33.057Z,45.60
2018-11-02T06:13:04.212Z,48.33
2018-11-02T06:13:35.366Z,49.40
2018-11-02T06:14:06.489Z,48.58
2018-11-02T06:14:37.708Z,49.75
2018-11-02T06:15:08.854Z,48.65
2018-11-02T06:15:39.976Z,46.53
2018-11-02T06:16:11.129Z,46.58
2018-11-02T06:16:42.251Z,42.50
2018-11-02T06:17:13.351Z,44.13
2018-11-02T06:17:44.488Z,45.98
2018-11-02T06:18:15.696Z,44.83
2018-11-02T06:18:46.853Z,44.13
2018-11-02T06:19:18.010Z,44.95
2018-11-02T06:19:49.149Z,44.60
2018-11-02T06:20:20.290Z,41.45
2018-11-02T06:20:51.394Z,39.75
2018-11-02T06:21:22.508Z,40.15
2018-11-02T06:21:53.642Z,41.77
2018-11-02T06:22:24.770Z,42.33
2018-11-02T06:22:55.953Z,42.83
2018-11-02T06:23:27.079Z,43.10
2018-11-02T06:23:58.265Z,43.87
2018-11-02T06:24:29.518Z,40.92
2018-11-02T06:25:00.575Z,42.33
2018-11-02T06:25:31.707Z,45.88
2018-11-02T06:26:02.847Z,45.92
2018-11-02T06:26:33.953Z,44.75
2018-11-02T06:27:05.067Z,45.83
2018-11-02T06:27:36.187Z,47.03
2018-11-02T06:28:07.355Z,45.80
2018-11-02T06:28:38.484Z,42.40
2018-11-02T06:29:09.602Z,44.53
2018-11-02T06:29:40.823Z,44.55
2018-11-02T06:30:11.953Z,44.33
2018-11-02T06:30:43.256Z,44.80
2018-11-02T06:31:14.237Z,43.60
2018-11-02T06:31:45.380Z,45.40
2018-11-02T06:32:16.519Z,42.75
2018-11-02T06:32:47.699Z,42.55
2018-11-02T06:33:18.815Z,41.73
2018-11-02T06:33:49.951Z,41.28
2018-11-02T06:34:21.091Z,43.95
2018-11-02T06:34:52.259Z,43.08
2018-11-02T06:35:23.380Z,44.15
2018-11-02T06:35:54.491Z,43.87
2018-11-02T06:36:25.649Z,43.95
2018-11-02T06:36:56.796Z,45.67
2018-11-02T06:37:27.952Z,45.67
2018-11-02T06:37:59.114Z,46.50
2018-11-02T06:38:30.249Z,43.95
2018-11-02T06:39:01.384Z,44.85
2018-11-02T06:39:32.560Z,42.08
2018-11-02T06:40:03.915Z,43.80
2018-11-02T06:40:35.062Z,46.30
2018-11-02T06:41:06.267Z,45.30
2018-11-02T06:41:37.397Z,43.10
2018-11-02T06:42:08.532Z,44.50
2018-11-02T06:42:39.748Z,41.77
2018-11-02T06:43:10.867Z,43.10
2018-11-02T06:43:42.001Z,44.70
2018-11-02T06:44:13.116Z,43.95
2018-11-02T06:44:44.310Z,43.90